Time,TemperatureF,DewpointF,PressureIn,WindDirection,WindDirectionDegrees,WindSpeedMPH,WindSpeedGustMPH,Humidity,HourlyPrecipIn,Conditions,Clouds,dailyrainin,SoftwareType,DateUTC
2013-03-31 00:00:00,55.1,39.0,30.13,SSE,150,2.0,-999.0,55,-99.99,,,0.00,weatherlink.com 1.10,2013-03-31 04:00:00,
2013-03-31 00:15:00,54.0,41.0,30.13,South,191,3.0,-999.0,61,-99.99,,,0.00,weatherlink.com 1.10,2013-03-31 04:15:00,
2013-03-31 00:30:00,51.7,43.0,30.12,SSE,155,3.0,-999.0,71,-99.99,,,0.00,weatherlink.com 1.10,2013-03-31 04:30:00,
2013-03-31 00:45:00,50.6,44.0,30.12,South,169,7.0,-999.0,79,-99.99,,,0.01,weatherlink.com 1.10,2013-03-31 04:45:00,
2013-03-31 01:00:00,50.1,45.0,30.11,SE,143,0.0,-999.0,83,-99.99,,,0.03,weatherlink.com 1.10,2013-03-31 05:00:00,
2013-03-31 01:15:00,50.1,45.0,30.10,SSW,197,0.0,-999.0,83,-99.99,,,0.05,weatherlink.com 1.10,2013-03-31 05:15:00,
2013-03-31 01:30:00,49.6,45.0,30.09,SSE,164,1.0,-999.0,85,-99.99,,,0.08,weatherlink.com 1.10,2013-03-31 05:30:00,
2013-03-31 01:45:00,49.5,46.0,30.08,SE,135,1.0,-999.0,87,-99.99,,,0.10,weatherlink.com 1.10,2013-03-31 05:45:00,
2013-03-31 02:00:00,49.2,46.0,30.07,ESE,106,0.0,-999.0,89,-99.99,,,0.12,weatherlink.com 1.10,2013-03-31 06:00:00,
2013-03-31 02:15:00,49.2,47.0,30.07,NNE,19,0.0,-999.0,90,-99.99,,,0.15,weatherlink.com 1.10,2013-03-31 06:15:00,
2013-03-31 02:30:00,49.5,47.0,30.05,ENE,59,0.0,-999.0,91,-99.99,,,0.18,weatherlink.com 1.10,2013-03-31 06:30:00,
2013-03-31 02:45:00,49.3,47.0,30.05,ESE,122,0.0,-999.0,92,-99.99,,,0.19,weatherlink.com 1.10,2013-03-31 06:45:00,
2013-03-31 03:00:00,49.2,47.0,30.03,NE,39,0.0,-999.0,92,-99.99,,,0.21,weatherlink.com 1.10,2013-03-31 07:00:00,
2013-03-31 03:15:00,49.2,47.0,30.03,SSE,165,0.0,-999.0,92,-99.99,,,0.21,weatherlink.com 1.10,2013-03-31 07:15:00,
2013-03-31 03:30:00,49.0,47.0,30.02,SE,139,1.0,-999.0,94,-99.99,,,0.23,weatherlink.com 1.10,2013-03-31 07:30:00,
2013-03-31 03:45:00,48.8,47.0,30.01,ESE,110,1.0,-999.0,94,-99.99,,,0.25,weatherlink.com 1.10,2013-03-31 07:45:00,
2013-03-31 04:00:00,48.4,47.0,30.01,East,94,2.0,-999.0,95,-99.99,,,0.27,weatherlink.com 1.10,2013-03-31 08:00:00,
2013-03-31 04:15:00,48.2,47.0,30.00,NE,34,0.0,-999.0,96,-99.99,,,0.28,weatherlink.com 1.10,2013-03-31 08:15:00,
2013-03-31 04:30:00,48.0,47.0,30.00,ENE,74,0.0,-999.0,96,-99.99,,,0.29,weatherlink.com 1.10,2013-03-31 08:30:00,
2013-03-31 04:45:00,48.1,47.0,29.99,SE,132,0.0,-999.0,96,-99.99,,,0.32,weatherlink.com 1.10,2013-03-31 08:45:00,
2013-03-31 05:00:00,48.0,47.0,29.98,SSE,153,0.0,-999.0,96,-99.99,,,0.32,weatherlink.com 1.10,2013-03-31 09:00:00,
2013-03-31 05:15:00,47.9,47.0,29.98,SSE,156,0.0,-999.0,97,-99.99,,,0.33,weatherlink.com 1.10,2013-03-31 09:15:00,
2013-03-31 05:30:00,47.9,47.0,29.98,SSE,153,0.0,-999.0,97,-99.99,,,0.33,weatherlink.com 1.10,2013-03-31 09:30:00,
2013-03-31 05:45:00,47.9,47.0,29.98,South,169,0.0,-999.0,97,-99.99,,,0.33,weatherlink.com 1.10,2013-03-31 09:45:00,
2013-03-31 06:00:00,47.7,47.0,29.98,ESE,119,2.0,-999.0,97,-99.99,,,0.35,weatherlink.com 1.10,2013-03-31 10:00:00,
2013-03-31 06:15:00,47.7,47.0,29.97,ESE,106,1.0,-999.0,97,-99.99,,,0.36,weatherlink.com 1.10,2013-03-31 10:15:00,
2013-03-31 06:30:00,47.7,47.0,29.97,South,181,0.0,-999.0,97,-99.99,,,0.36,weatherlink.com 1.10,2013-03-31 10:30:00,
2013-03-31 06:45:00,47.7,47.0,29.97,ENE,77,0.0,-999.0,97,-99.99,,,0.37,weatherlink.com 1.10,2013-03-31 10:45:00,
2013-03-31 07:00:00,47.9,47.0,29.97,SE,139,0.0,-999.0,97,-99.99,,,0.38,weatherlink.com 1.10,2013-03-31 11:00:00,
2013-03-31 07:15:00,48.3,48.0,29.97,SSE,150,2.0,-999.0,98,-99.99,,,0.38,weatherlink.com 1.10,2013-03-31 11:15:00,
2013-03-31 07:30:00,48.4,48.0,29.96,SE,131,3.0,-999.0,98,-99.99,,,0.38,weatherlink.com 1.10,2013-03-31 11:30:00,
2013-03-31 07:45:00,48.3,48.0,29.97,SSE,147,2.0,-999.0,98,-99.99,,,0.38,weatherlink.com 1.10,2013-03-31 11:45:00,
2013-03-31 08:00:00,48.3,48.0,29.96,SE,143,2.0,-999.0,98,-99.99,,,0.38,weatherlink.com 1.10,2013-03-31 12:00:00,
2013-03-31 08:15:00,48.4,48.0,29.96,WSW,246,0.0,-999.0,98,-99.99,,,0.38,weatherlink.com 1.10,2013-03-31 12:15:00,
2013-03-31 08:30:00,48.6,48.0,29.96,SW,217,0.0,-999.0,98,-99.99,,,0.38,weatherlink.com 1.10,2013-03-31 12:30:00,
2013-03-31 08:45:00,49.2,49.0,29.97,WNW,293,1.0,-999.0,98,-99.99,,,0.38,weatherlink.com 1.10,2013-03-31 12:45:00,
2013-03-31 09:00:00,49.3,49.0,29.97,WSW,248,2.0,-999.0,98,-99.99,,,0.38,weatherlink.com 1.10,2013-03-31 13:00:00,
2013-03-31 09:15:00,49.2,49.0,29.97,West,274,2.0,-999.0,98,-99.99,,,0.38,weatherlink.com 1.10,2013-03-31 13:15:00,
2013-03-31 09:30:00,49.5,49.0,29.97,SSE,167,3.0,-999.0,98,-99.99,,,0.38,weatherlink.com 1.10,2013-03-31 13:30:00,
2013-03-31 09:45:00,49.9,49.0,29.98,South,188,3.0,-999.0,98,-99.99,,,0.38,weatherlink.com 1.10,2013-03-31 13:45:00,
2013-03-31 10:00:00,50.1,50.0,29.97,SSE,162,2.0,-999.0,98,-99.99,,,0.38,weatherlink.com 1.10,2013-03-31 14:00:00,
2013-03-31 10:15:00,50.6,50.0,29.97,SW,233,2.0,-999.0,98,-99.99,,,0.38,weatherlink.com 1.10,2013-03-31 14:15:00,
2013-03-31 10:30:00,50.9,50.0,29.97,SSE,165,1.0,-999.0,98,-99.99,,,0.38,weatherlink.com 1.10,2013-03-31 14:30:00,
2013-03-31 10:45:00,51.0,51.0,29.97,South,181,4.0,-999.0,98,-99.99,,,0.38,weatherlink.com 1.10,2013-03-31 14:45:00,
2013-03-31 11:00:00,51.5,51.0,29.97,West,269,4.0,-999.0,98,-99.99,,,0.38,weatherlink.com 1.10,2013-03-31 15:00:00,
2013-03-31 11:15:00,52.1,52.0,29.97,SE,143,9.0,-999.0,98,-99.99,,,0.38,weatherlink.com 1.10,2013-03-31 15:15:00,
2013-03-31 11:30:00,52.2,52.0,29.97,SSW,204,6.0,-999.0,98,-99.99,,,0.38,weatherlink.com 1.10,2013-03-31 15:30:00,
2013-03-31 11:45:00,52.9,52.0,29.97,SSW,193,3.0,-999.0,98,-99.99,,,0.38,weatherlink.com 1.10,2013-03-31 15:45:00,
2013-03-31 12:00:00,53.7,53.0,29.96,South,191,4.0,-999.0,98,-99.99,,,0.38,weatherlink.com 1.10,2013-03-31 16:00:00,
2013-03-31 12:15:00,54.2,54.0,29.96,SW,221,6.0,-999.0,98,-99.99,,,0.38,weatherlink.com 1.10,2013-03-31 16:15:00,
2013-03-31 12:30:00,54.6,54.0,29.96,SSE,148,1.0,-999.0,98,-99.99,,,0.38,weatherlink.com 1.10,2013-03-31 16:30:00,
2013-03-31 12:45:00,56.2,55.0,29.96,WSW,256,2.0,-999.0,97,-99.99,,,0.38,weatherlink.com 1.10,2013-03-31 16:45:00,
2013-03-31 13:00:00,57.9,55.0,29.95,South,169,2.0,-999.0,91,-99.99,,,0.38,weatherlink.com 1.10,2013-03-31 17:00:00,
2013-03-31 13:15:00,57.9,54.0,29.96,SSW,200,3.0,-999.0,87,-99.99,,,0.38,weatherlink.com 1.10,2013-03-31 17:15:00,
2013-03-31 13:30:00,58.3,54.0,29.95,SSE,159,2.0,-999.0,86,-99.99,,,0.38,weatherlink.com 1.10,2013-03-31 17:30:00,
2013-03-31 13:45:00,59.3,55.0,29.95,ESE,102,1.0,-999.0,85,-99.99,,,0.38,weatherlink.com 1.10,2013-03-31 17:45:00,
2013-03-31 14:00:00,61.4,55.0,29.94,South,169,9.0,-999.0,79,-99.99,,,0.38,weatherlink.com 1.10,2013-03-31 18:00:00,
2013-03-31 14:15:00,59.8,54.0,29.94,South,180,5.0,-999.0,80,-99.99,,,0.38,weatherlink.com 1.10,2013-03-31 18:15:00,
2013-03-31 14:30:00,60.9,53.0,29.93,WSW,238,2.0,-999.0,76,-99.99,,,0.38,weatherlink.com 1.10,2013-03-31 18:30:00,
2013-03-31 14:45:00,59.9,53.0,29.93,East,100,5.0,-999.0,79,-99.99,,,0.38,weatherlink.com 1.10,2013-03-31 18:45:00,
2013-03-31 15:00:00,60.4,54.0,29.93,SSW,194,9.0,-999.0,79,-99.99,,,0.38,weatherlink.com 1.10,2013-03-31 19:00:00,
2013-03-31 15:15:00,61.7,54.0,29.93,SE,144,5.0,-999.0,75,-99.99,,,0.38,weatherlink.com 1.10,2013-03-31 19:15:00,
2013-03-31 15:30:00,61.6,53.0,29.93,SW,228,3.0,-999.0,74,-99.99,,,0.38,weatherlink.com 1.10,2013-03-31 19:30:00,
2013-03-31 15:45:00,60.2,53.0,29.92,SSW,204,7.0,-999.0,77,-99.99,,,0.38,weatherlink.com 1.10,2013-03-31 19:45:00,
2013-03-31 16:00:00,59.6,53.0,29.92,South,170,7.0,-999.0,78,-99.99,,,0.38,weatherlink.com 1.10,2013-03-31 20:00:00,
2013-03-31 16:15:00,58.8,52.0,29.92,SSE,155,12.0,-999.0,78,-99.99,,,0.38,weatherlink.com 1.10,2013-03-31 20:15:00,
2013-03-31 16:30:00,58.5,52.0,29.92,SSE,164,3.0,-999.0,80,-99.99,,,0.38,weatherlink.com 1.10,2013-03-31 20:30:00,
2013-03-31 16:45:00,56.1,53.0,29.93,SW,236,4.0,-999.0,89,-99.99,,,0.42,weatherlink.com 1.10,2013-03-31 20:45:00,
2013-03-31 17:00:00,55.0,53.0,29.93,West,266,2.0,-999.0,93,-99.99,,,0.44,weatherlink.com 1.10,2013-03-31 21:00:00,
2013-03-31 17:15:00,54.7,53.0,29.92,NE,47,1.0,-999.0,93,-99.99,,,0.47,weatherlink.com 1.10,2013-03-31 21:15:00,
2013-03-31 17:30:00,55.0,53.0,29.91,South,169,0.0,-999.0,94,-99.99,,,0.47,weatherlink.com 1.10,2013-03-31 21:30:00,
2013-03-31 17:45:00,54.8,53.0,29.91,SSW,204,3.0,-999.0,94,-99.99,,,0.47,weatherlink.com 1.10,2013-03-31 21:45:00,
2013-03-31 18:00:00,54.7,53.0,29.90,WNW,284,3.0,-999.0,94,-99.99,,,0.47,weatherlink.com 1.10,2013-03-31 22:00:00,
2013-03-31 18:15:00,54.7,53.0,29.90,SSW,208,3.0,-999.0,95,-99.99,,,0.47,weatherlink.com 1.10,2013-03-31 22:15:00,
2013-03-31 18:30:00,54.6,53.0,29.92,SSW,208,3.0,-999.0,95,-99.99,,,0.47,weatherlink.com 1.10,2013-03-31 22:30:00,
2013-03-31 18:45:00,54.3,53.0,29.92,WSW,239,0.0,-999.0,96,-99.99,,,0.47,weatherlink.com 1.10,2013-03-31 22:45:00,
2013-03-31 19:00:00,54.2,53.0,29.91,WNW,287,1.0,-999.0,96,-99.99,,,0.47,weatherlink.com 1.10,2013-03-31 23:00:00,
2013-03-31 19:15:00,54.2,53.0,29.92,South,176,5.0,-999.0,96,-99.99,,,0.47,weatherlink.com 1.10,2013-03-31 23:15:00,
2013-03-31 19:30:00,54.1,53.0,29.91,WNW,291,2.0,-999.0,97,-99.99,,,0.47,weatherlink.com 1.10,2013-03-31 23:30:00,
2013-03-31 19:45:00,54.0,53.0,29.92,SSE,159,5.0,-999.0,97,-99.99,,,0.47,weatherlink.com 1.10,2013-03-31 23:45:00,
2013-03-31 20:00:00,53.9,53.0,29.91,SSW,211,2.0,-999.0,97,-99.99,,,0.47,weatherlink.com 1.10,2013-04-01 00:00:00,
2013-03-31 20:15:00,53.8,53.0,29.91,East,82,1.0,-999.0,97,-99.99,,,0.47,weatherlink.com 1.10,2013-04-01 00:15:00,
2013-03-31 20:30:00,53.9,53.0,29.91,SE,138,1.0,-999.0,96,-99.99,,,0.47,weatherlink.com 1.10,2013-04-01 00:30:00,
2013-03-31 20:45:00,53.8,53.0,29.91,WSW,246,2.0,-999.0,96,-99.99,,,0.47,weatherlink.com 1.10,2013-04-01 00:45:00,
2013-03-31 21:00:00,54.0,53.0,29.91,SSE,160,0.0,-999.0,96,-99.99,,,0.47,weatherlink.com 1.10,2013-04-01 01:00:00,
2013-03-31 21:15:00,54.1,53.0,29.91,SW,236,1.0,-999.0,96,-99.99,,,0.47,weatherlink.com 1.10,2013-04-01 01:15:00,
2013-03-31 21:30:00,54.2,53.0,29.91,SE,136,0.0,-999.0,96,-99.99,,,0.47,weatherlink.com 1.10,2013-04-01 01:30:00,
2013-03-31 21:45:00,54.1,53.0,29.91,SW,236,2.0,-999.0,96,-99.99,,,0.47,weatherlink.com 1.10,2013-04-01 01:45:00,
2013-03-31 22:00:00,54.1,53.0,29.92,SSE,153,2.0,-999.0,96,-99.99,,,0.47,weatherlink.com 1.10,2013-04-01 02:00:00,
2013-03-31 22:15:00,54.2,53.0,29.92,SSW,195,1.0,-999.0,97,-99.99,,,0.47,weatherlink.com 1.10,2013-04-01 02:15:00,
2013-03-31 22:30:00,54.3,54.0,29.92,North,8,1.0,-999.0,97,-99.99,,,0.47,weatherlink.com 1.10,2013-04-01 02:30:00,
2013-03-31 22:45:00,54.2,53.0,29.92,SE,143,0.0,-999.0,97,-99.99,,,0.47,weatherlink.com 1.10,2013-04-01 02:45:00,
2013-03-31 23:00:00,54.2,53.0,29.92,SSE,162,1.0,-999.0,97,-99.99,,,0.47,weatherlink.com 1.10,2013-04-01 03:00:00,
2013-03-31 23:15:00,54.3,54.0,29.92,SE,139,0.0,-999.0,97,-99.99,,,0.47,weatherlink.com 1.10,2013-04-01 03:15:00,
2013-03-31 23:30:00,54.2,53.0,29.92,WSW,244,1.0,-999.0,97,-99.99,,,0.47,weatherlink.com 1.10,2013-04-01 03:30:00,
2013-03-31 23:45:00,54.2,53.0,29.91,ESE,115,2.0,-999.0,97,-99.99,,,0.47,weatherlink.com 1.10,2013-04-01 03:45:00,